createdAt,value
2023-03-26T00:01:23.901Z,10.08
2023-03-26T00:03:57.969Z,10.08
2023-03-26T00:06:28.771Z,10.15
2023-03-26T00:08:58.964Z,10.12
2023-03-26T00:11:35.893Z,10.05
2023-03-26T00:14:07.541Z,10.05
2023-03-26T00:16:34.402Z,10.04
2023-03-26T00:19:04.741Z,10.04
2023-03-26T00:21:36.672Z,10.05
2023-03-26T00:24:09.471Z,10.05
2023-03-26T00:26:38.443Z,10.04
2023-03-26T00:29:09.882Z,10.05
2023-03-26T00:31:39.822Z,10.04
2023-03-26T00:34:06.949Z,10.04
2023-03-26T00:36:35.999Z,10.07
2023-03-26T00:39:06.250Z,10.05
2023-03-26T00:41:37.135Z,10.10
2023-03-26T00:44:06.715Z,10.08
2023-03-26T00:46:39.907Z,10.11
2023-03-26T00:49:35.555Z,10.07
2023-03-26T00:52:03.106Z,10.07
2023-03-26T00:54:29.812Z,10.07
2023-03-26T00:56:56.375Z,10.04
2023-03-26T01:00:42.302Z,10.08
2023-03-26T01:06:08.858Z,10.11
2023-03-26T01:08:42.778Z,10.10
2023-03-26T01:11:34.225Z,10.08
2023-03-26T01:14:14.754Z,10.08
2023-03-26T01:16:46.369Z,10.04
2023-03-26T01:19:22.895Z,10.08
2023-03-26T01:21:49.765Z,10.05
2023-03-26T01:24:16.628Z,10.11
2023-03-26T01:27:02.624Z,10.04
2023-03-26T01:29:32.531Z,9.98
2023-03-26T01:32:32.165Z,9.93
2023-03-26T01:35:13.109Z,9.87
2023-03-26T01:38:17.358Z,9.89
2023-03-26T01:41:27.261Z,9.80
2023-03-26T01:44:04.390Z,9.81
2023-03-26T01:46:36.794Z,9.74
2023-03-26T01:49:05.837Z,9.71
2023-03-26T01:51:35.836Z,9.71
2023-03-26T01:54:24.399Z,9.64
2023-03-26T01:56:57.378Z,9.56
2023-03-26T01:59:36.067Z,9.50
2023-03-26T02:02:14.366Z,9.31
2023-03-26T02:04:41.184Z,9.23
2023-03-26T02:07:21.204Z,9.18
2023-03-26T02:09:57.223Z,9.36
2023-03-26T02:12:24.991Z,9.53
2023-03-26T02:14:52.248Z,9.63
2023-03-26T02:17:24.621Z,9.54
2023-03-26T02:19:57.148Z,9.67
2023-03-26T02:22:49.447Z,9.60
2023-03-26T02:25:50.826Z,9.59
2023-03-26T02:28:29.315Z,9.56
2023-03-26T02:31:18.728Z,9.54
2023-03-26T02:34:06.750Z,9.63
2023-03-26T02:36:38.815Z,9.54
2023-03-26T02:39:40.923Z,9.47
2023-03-26T02:44:56.659Z,9.59
2023-03-26T02:47:38.708Z,9.53
2023-03-26T02:50:28.158Z,9.62
2023-03-26T02:52:59.670Z,9.59
2023-03-26T02:55:52.650Z,9.52
2023-03-26T02:58:53.485Z,9.49
2023-03-26T03:01:26.065Z,9.43
2023-03-26T03:04:41.490Z,9.46
2023-03-26T03:07:24.659Z,9.44
2023-03-26T03:10:21.633Z,9.49
2023-03-26T03:13:16.391Z,9.40
2023-03-26T03:16:12.514Z,9.39
2023-03-26T03:18:48.952Z,9.38
2023-03-26T03:21:42.352Z,9.42
2023-03-26T03:24:20.880Z,9.42
2023-03-26T03:27:07.266Z,9.39
2023-03-26T03:30:11.146Z,9.40
2023-03-26T03:32:44.816Z,9.39
2023-03-26T03:35:49.750Z,9.42
2023-03-26T03:38:17.780Z,9.43
2023-03-26T03:40:54.463Z,9.36
2023-03-26T03:44:01.612Z,9.33
2023-03-26T03:46:40.722Z,9.33
2023-03-26T03:49:27.318Z,9.40
2023-03-26T03:52:41.031Z,9.49
2023-03-26T03:55:48.242Z,9.44
2023-03-26T03:58:44.577Z,9.40
2023-03-26T04:15:07.894Z,8.68
2023-03-26T04:31:50.867Z,8.33
2023-03-26T04:34:46.625Z,8.29
2023-03-26T04:38:12.986Z,8.26
2023-03-26T04:44:09.984Z,8.32
2023-03-26T04:46:43.982Z,8.23
2023-03-26T04:52:50.012Z,8.29
2023-03-26T04:56:04.937Z,8.25
2023-03-26T05:01:49.379Z,8.19
2023-03-26T05:04:34.353Z,8.22
2023-03-26T05:07:52.564Z,8.22
2023-03-26T05:10:45.139Z,8.25
2023-03-26T05:20:59.561Z,8.29
2023-03-26T05:24:05.180Z,8.23
2023-03-26T05:26:58.975Z,8.25
2023-03-26T05:33:24.293Z,8.32
2023-03-26T05:36:34.336Z,8.28
2023-03-26T05:39:16.586Z,8.34
2023-03-26T05:48:51.526Z,8.34
2023-03-26T05:52:05.159Z,8.39
2023-03-26T05:55:21.353Z,8.33
2023-03-26T06:02:00.747Z,8.15
2023-03-26T06:04:57.314Z,8.13
2023-03-26T06:07:50.151Z,8.06
2023-03-26T06:10:30.184Z,8.02
2023-03-26T06:13:05.848Z,7.89
2023-03-26T06:15:45.846Z,7.86
2023-03-26T06:18:12.912Z,7.78
2023-03-26T06:21:45.165Z,7.77
2023-03-26T06:24:27.850Z,7.70
2023-03-26T06:27:03.619Z,7.70
2023-03-26T06:33:16.950Z,7.58
2023-03-26T06:39:13.120Z,7.57
2023-03-26T06:41:56.554Z,7.68
2023-03-26T06:44:59.364Z,7.71
2023-03-26T06:47:54.348Z,7.81
2023-03-26T06:50:37.051Z,7.82
2023-03-26T06:53:12.178Z,7.85
2023-03-26T06:56:00.095Z,7.78
2023-03-26T06:58:36.137Z,7.82
2023-03-26T07:01:09.282Z,7.79
2023-03-26T07:03:36.091Z,7.75
2023-03-26T07:06:17.569Z,7.71
2023-03-26T07:11:47.468Z,7.81
2023-03-26T07:14:13.982Z,7.75
2023-03-26T07:17:01.242Z,7.79
2023-03-26T07:19:40.631Z,7.81
2023-03-26T07:22:24.060Z,7.86
2023-03-26T07:25:07.469Z,7.92
2023-03-26T07:28:18.948Z,7.82
2023-03-26T07:31:02.112Z,7.93
2023-03-26T07:33:44.718Z,7.85
2023-03-26T07:36:17.328Z,7.95
2023-03-26T07:38:49.783Z,7.89
2023-03-26T07:41:59.101Z,7.88
2023-03-26T07:44:44.401Z,7.85
2023-03-26T07:47:34.843Z,7.85
2023-03-26T07:50:03.039Z,7.88
2023-03-26T07:52:41.960Z,7.81
2023-03-26T07:55:13.462Z,7.79
2023-03-26T07:58:00.938Z,7.79
2023-03-26T08:00:44.107Z,7.75
2023-03-26T08:03:42.563Z,7.75
2023-03-26T08:06:22.905Z,7.72
2023-03-26T08:09:06.239Z,7.81
2023-03-26T08:11:53.681Z,7.78
2023-03-26T08:14:54.138Z,7.78
2023-03-26T08:17:35.274Z,7.77
2023-03-26T08:20:12.096Z,7.79
2023-03-26T08:22:51.564Z,7.74
2023-03-26T08:25:24.411Z,7.71
2023-03-26T08:28:25.412Z,7.74
2023-03-26T08:30:55.166Z,7.82
2023-03-26T08:33:28.182Z,7.75
2023-03-26T08:35:54.750Z,7.68
2023-03-26T08:38:21.391Z,7.77
2023-03-26T08:41:17.030Z,7.74
2023-03-26T08:44:17.274Z,7.79
2023-03-26T08:47:12.122Z,7.78
2023-03-26T08:50:15.577Z,7.74
2023-03-26T08:53:09.195Z,7.72
2023-03-26T08:55:53.684Z,7.74
2023-03-26T08:58:38.473Z,7.86
2023-03-26T09:01:30.039Z,7.85
2023-03-26T09:04:34.434Z,7.77
2023-03-26T09:07:31.599Z,7.61
2023-03-26T09:10:23.023Z,7.51
2023-03-26T09:12:56.894Z,7.30
2023-03-26T09:15:42.409Z,7.40
2023-03-26T09:18:55.156Z,7.47
2023-03-26T09:21:59.205Z,7.67
2023-03-26T09:25:21.583Z,7.48
2023-03-26T09:28:05.018Z,7.46
2023-03-26T09:30:55.034Z,7.33
2023-03-26T09:33:37.068Z,7.09
2023-03-26T09:36:52.999Z,6.96
2023-03-26T09:39:36.079Z,7.16
2023-03-26T09:42:24.504Z,7.09
2023-03-26T09:45:10.195Z,7.14
2023-03-26T09:47:58.580Z,7.35
2023-03-26T09:51:15.718Z,7.44
2023-03-26T09:53:54.577Z,7.48
2023-03-26T09:56:57.846Z,7.51
2023-03-26T09:59:55.006Z,7.47
2023-03-26T10:02:56.241Z,7.51
2023-03-26T10:09:12.213Z,7.47
2023-03-26T10:12:17.809Z,7.50
2023-03-26T10:14:58.811Z,7.71
2023-03-26T10:17:56.715Z,7.71
2023-03-26T10:20:33.537Z,7.60
2023-03-26T10:23:22.935Z,7.65
2023-03-26T10:26:06.287Z,7.63
2023-03-26T10:28:52.896Z,7.70
2023-03-26T10:31:52.240Z,7.68
2023-03-26T10:34:29.103Z,7.85
2023-03-26T10:36:56.455Z,7.91
2023-03-26T10:39:48.001Z,7.88
2023-03-26T10:42:33.149Z,7.71
2023-03-26T10:45:14.402Z,7.71
2023-03-26T10:48:29.403Z,7.74
2023-03-26T10:51:28.206Z,7.79
2023-03-26T10:54:05.956Z,7.78
2023-03-26T10:56:46.606Z,7.81
2023-03-26T10:59:17.497Z,7.86
2023-03-26T11:01:54.079Z,7.98
2023-03-26T11:04:55.638Z,8.06
2023-03-26T11:07:59.580Z,8.32
2023-03-26T11:11:24.797Z,8.43
2023-03-26T11:14:21.352Z,8.52
2023-03-26T11:17:40.072Z,8.71
2023-03-26T11:20:20.601Z,9.04
2023-03-26T11:23:10.695Z,9.29
2023-03-26T11:25:52.681Z,9.36
2023-03-26T11:28:39.434Z,9.19
2023-03-26T11:31:15.007Z,9.26
2023-03-26T11:33:47.203Z,9.22
2023-03-26T11:36:19.541Z,9.31
2023-03-26T11:38:55.529Z,9.38
2023-03-26T11:41:28.185Z,9.29
2023-03-26T11:44:02.412Z,9.36
2023-03-26T11:46:29.198Z,9.36
2023-03-26T11:48:59.410Z,9.28
2023-03-26T11:51:37.990Z,9.19
2023-03-26T11:54:11.382Z,9.28
2023-03-26T11:57:05.936Z,9.40
2023-03-26T11:59:53.098Z,9.53
2023-03-26T12:02:35.680Z,9.66
2023-03-26T12:05:12.574Z,9.77
2023-03-26T12:07:46.904Z,10.00
2023-03-26T12:10:37.980Z,10.15
2023-03-26T12:13:26.569Z,10.10
2023-03-26T12:16:10.154Z,10.07
2023-03-26T12:18:38.164Z,10.15
2023-03-26T12:21:11.425Z,10.41
2023-03-26T12:23:42.426Z,10.46
2023-03-26T12:26:34.567Z,10.66
2023-03-26T12:29:11.485Z,11.07
2023-03-26T12:32:05.856Z,11.07
2023-03-26T12:34:39.479Z,11.21
2023-03-26T12:37:08.338Z,11.48
2023-03-26T12:40:07.431Z,11.69
2023-03-26T12:44:49.933Z,11.63
2023-03-26T12:45:21.728Z,11.82
2023-03-26T12:47:58.656Z,11.90
2023-03-26T12:50:51.529Z,11.75
2023-03-26T12:53:58.491Z,11.72
2023-03-26T12:56:36.870Z,11.75
2023-03-26T12:59:29.348Z,11.82
2023-03-26T13:02:08.194Z,11.52
2023-03-26T13:05:04.959Z,11.55
2023-03-26T13:07:58.773Z,11.31
2023-03-26T13:10:32.414Z,11.51
2023-03-26T13:13:32.816Z,11.52
2023-03-26T13:16:04.041Z,11.92
2023-03-26T13:18:45.902Z,11.68
2023-03-26T13:21:33.433Z,12.00
2023-03-26T13:24:09.118Z,11.81
2023-03-26T13:26:57.564Z,11.81
2023-03-26T13:29:59.616Z,11.41
2023-03-26T13:32:57.243Z,11.48
2023-03-26T13:35:51.843Z,12.03
2023-03-26T13:39:14.374Z,12.06
2023-03-26T13:42:04.407Z,12.00
2023-03-26T13:45:05.868Z,11.59
2023-03-26T13:47:41.095Z,11.45
2023-03-26T13:50:18.344Z,11.69
2023-03-26T13:53:02.001Z,11.57
2023-03-26T13:55:39.967Z,11.52
2023-03-26T13:58:17.056Z,11.18
2023-03-26T14:01:02.257Z,11.58
2023-03-26T14:03:52.930Z,11.66
2023-03-26T14:06:28.467Z,11.97
2023-03-26T14:09:02.595Z,11.92
2023-03-26T14:11:37.594Z,12.28
2023-03-26T14:14:13.172Z,12.28
2023-03-26T14:16:45.811Z,12.38
2023-03-26T14:19:57.152Z,12.23
2023-03-26T14:22:45.595Z,12.07
2023-03-26T14:25:35.923Z,11.69
2023-03-26T14:28:06.652Z,11.45
2023-03-26T14:31:04.631Z,11.59
2023-03-26T14:34:19.469Z,11.44
2023-03-26T14:37:15.850Z,11.82
2023-03-26T14:40:28.336Z,12.00
2023-03-26T14:43:16.639Z,12.05
2023-03-26T14:46:07.487Z,11.49
2023-03-26T14:48:39.828Z,11.24
2023-03-26T14:51:34.245Z,11.31
2023-03-26T14:54:08.586Z,11.38
2023-03-26T14:57:06.194Z,11.51
2023-03-26T14:59:51.570Z,11.47
2023-03-26T15:02:51.012Z,11.32
2023-03-26T15:05:40.282Z,11.27
2023-03-26T15:08:33.706Z,11.45
2023-03-26T15:11:20.929Z,11.55
2023-03-26T15:14:04.002Z,11.59
2023-03-26T15:16:45.911Z,11.41
2023-03-26T15:19:40.781Z,11.17
2023-03-26T15:22:31.303Z,11.16
2023-03-26T15:25:23.369Z,11.18
2023-03-26T15:28:21.600Z,11.11
2023-03-26T15:31:24.095Z,10.84
2023-03-26T15:34:14.678Z,10.48
2023-03-26T15:36:47.204Z,10.26
2023-03-26T15:39:30.164Z,10.02
2023-03-26T15:42:38.092Z,9.94
2023-03-26T15:45:31.217Z,10.02
2023-03-26T15:48:12.979Z,9.94
2023-03-26T15:50:54.532Z,9.95
2023-03-26T15:53:35.217Z,10.02
2023-03-26T15:56:18.665Z,9.95
2023-03-26T15:59:00.695Z,9.93
2023-03-26T16:01:51.438Z,9.95
2023-03-26T16:04:32.477Z,9.79
2023-03-26T16:07:28.922Z,9.79
2023-03-26T16:10:28.942Z,9.84
2023-03-26T16:13:20.123Z,9.86
2023-03-26T16:15:56.410Z,9.71
2023-03-26T16:18:35.879Z,9.69
2023-03-26T16:21:31.336Z,9.71
2023-03-26T16:24:10.170Z,9.64
2023-03-26T16:26:43.119Z,9.70
2023-03-26T16:29:18.836Z,9.73
2023-03-26T16:32:17.408Z,9.73
2023-03-26T16:34:53.213Z,9.54
2023-03-26T16:37:40.701Z,9.40
2023-03-26T16:40:16.436Z,9.46
2023-03-26T16:43:18.244Z,9.50
2023-03-26T16:45:44.867Z,9.52
2023-03-26T16:48:24.807Z,9.49
2023-03-26T16:51:03.711Z,9.42
2023-03-26T16:53:49.901Z,9.42
2023-03-26T16:56:26.110Z,9.47
2023-03-26T16:58:58.631Z,9.43
2023-03-26T17:01:43.540Z,9.46
2023-03-26T17:04:19.180Z,9.40
2023-03-26T17:06:56.473Z,9.32
2023-03-26T17:09:28.732Z,9.36
2023-03-26T17:12:19.283Z,9.21
2023-03-26T17:15:08.218Z,9.18
2023-03-26T17:17:40.532Z,9.11
2023-03-26T17:20:40.910Z,9.19
2023-03-26T17:23:29.009Z,9.00
2023-03-26T17:26:16.521Z,8.98
2023-03-26T17:28:58.740Z,8.92
2023-03-26T17:31:35.306Z,8.82
2023-03-26T17:34:34.263Z,8.85
2023-03-26T17:37:04.621Z,8.77
2023-03-26T17:39:40.383Z,8.77
2023-03-26T17:42:16.102Z,8.71
2023-03-26T17:44:44.640Z,8.74
2023-03-26T17:47:19.600Z,8.67
2023-03-26T17:49:49.598Z,8.60
2023-03-26T17:52:25.203Z,8.63
2023-03-26T17:57:45.761Z,8.63
2023-03-26T18:00:19.445Z,8.67
2023-03-26T18:02:53.992Z,8.60
2023-03-26T18:05:21.868Z,8.61
2023-03-26T18:08:01.997Z,8.67
2023-03-26T18:10:49.556Z,8.67
2023-03-26T18:13:47.239Z,8.64
2023-03-26T18:16:18.509Z,8.63
2023-03-26T18:18:57.573Z,8.59
2023-03-26T18:21:37.033Z,8.53
2023-03-26T18:24:05.607Z,8.53
2023-03-26T18:26:41.577Z,8.64
2023-03-26T18:29:26.054Z,8.85
2023-03-26T18:32:17.374Z,8.84
2023-03-26T18:34:49.958Z,8.78
2023-03-26T18:37:19.636Z,8.73
2023-03-26T18:40:11.875Z,8.63
2023-03-26T18:42:40.770Z,8.64
2023-03-26T18:45:25.287Z,8.57
2023-03-26T18:47:54.596Z,8.65
2023-03-26T18:50:27.775Z,8.57
2023-03-26T18:52:58.103Z,8.67
2023-03-26T18:55:27.660Z,8.57
2023-03-26T18:57:54.136Z,8.67
2023-03-26T19:00:23.481Z,8.63
2023-03-26T19:03:12.800Z,8.63
2023-03-26T19:05:39.529Z,8.59
2023-03-26T19:08:06.682Z,8.59
2023-03-26T19:10:33.661Z,8.63
2023-03-26T19:13:02.222Z,8.57
2023-03-26T19:15:33.914Z,8.64
2023-03-26T19:18:07.292Z,8.53
2023-03-26T19:20:43.796Z,8.54
2023-03-26T19:23:15.906Z,8.54
2023-03-26T19:25:48.363Z,8.59
2023-03-26T19:28:24.899Z,8.63
2023-03-26T19:31:19.976Z,8.53
2023-03-26T19:34:13.806Z,8.71
2023-03-26T19:37:01.401Z,8.63
2023-03-26T19:39:47.128Z,8.52
2023-03-26T19:42:17.770Z,8.49
2023-03-26T19:44:44.494Z,8.71
2023-03-26T19:47:32.110Z,8.54
2023-03-26T19:50:28.942Z,8.39
2023-03-26T19:53:16.187Z,8.33
2023-03-26T19:55:53.951Z,8.22
2023-03-26T19:58:21.228Z,8.22
2023-03-26T20:00:47.692Z,8.23
2023-03-26T20:03:16.965Z,8.23
2023-03-26T20:05:43.662Z,8.10
2023-03-26T20:50:24.812Z,8.13
2023-03-26T20:52:54.600Z,7.96
2023-03-26T20:55:54.883Z,7.99
2023-03-26T20:58:36.174Z,7.86
2023-03-26T21:01:15.640Z,8.03
2023-03-26T21:03:49.122Z,7.75
2023-03-26T21:06:22.493Z,8.02
2023-03-26T21:09:31.428Z,8.01
2023-03-26T21:12:50.799Z,8.01
2023-03-26T21:15:36.383Z,7.92
2023-03-26T21:21:26.025Z,7.53
2023-03-26T21:24:21.708Z,7.57
2023-03-26T21:26:58.706Z,7.55
2023-03-26T21:32:55.470Z,7.61
2023-03-26T21:35:55.535Z,7.68
2023-03-26T21:38:58.551Z,7.75
2023-03-26T21:45:54.981Z,7.35
2023-03-26T21:48:38.250Z,7.26
2023-03-26T21:51:23.608Z,7.47
2023-03-26T21:54:14.421Z,7.46
2023-03-26T21:57:29.188Z,7.22
2023-03-26T22:06:34.668Z,7.39
2023-03-26T22:09:13.862Z,7.23
2023-03-26T22:11:50.277Z,7.07
2023-03-26T22:14:40.472Z,7.24
2023-03-26T22:17:54.342Z,6.96
2023-03-26T22:20:22.180Z,7.03
2023-03-26T22:22:55.814Z,6.97
2023-03-26T22:26:12.190Z,6.96
2023-03-26T22:56:44.954Z,5.73
2023-03-26T23:00:01.380Z,5.67
2023-03-26T23:18:34.897Z,5.39
